createdAt,value
2018-07-15T00:00:48.687Z,85.20
2018-07-15T00:03:17.482Z,85.30
2018-07-15T00:05:46.675Z,85.30
2018-07-15T00:08:15.486Z,85.80
2018-07-15T00:10:45.742Z,85.50
2018-07-15T00:13:15.124Z,85.70
2018-07-15T00:15:44.948Z,85.60
2018-07-15T00:18:14.439Z,86.00
2018-07-15T00:20:43.592Z,85.70
2018-07-15T00:23:12.802Z,86.70
2018-07-15T00:25:42.036Z,86.20
2018-07-15T00:28:10.851Z,85.90
2018-07-15T00:33:08.544Z,86.60
2018-07-15T00:35:37.532Z,86.40
2018-07-15T00:38:06.926Z,86.80
2018-07-15T00:40:35.923Z,87.10
2018-07-15T00:43:05.023Z,87.40
2018-07-15T00:45:33.882Z,87.40
2018-07-15T00:48:02.696Z,87.60
2018-07-15T00:50:31.478Z,87.90
2018-07-15T00:53:00.280Z,87.50
2018-07-15T00:55:29.439Z,88.10
2018-07-15T00:57:58.974Z,87.40
2018-07-15T01:00:33.498Z,87.30
2018-07-15T01:03:03.005Z,87.20
2018-07-15T01:05:32.435Z,87.20
2018-07-15T01:08:01.222Z,87.30
2018-07-15T01:10:30.020Z,88.10
2018-07-15T01:12:59.124Z,87.30
2018-07-15T01:15:28.622Z,86.90
2018-07-15T01:17:57.406Z,86.80
2018-07-15T01:20:26.221Z,86.90
2018-07-15T01:22:55.021Z,86.40
2018-07-15T01:25:23.976Z,86.70
2018-07-15T01:27:53.080Z,87.30
2018-07-15T01:30:22.213Z,87.10
2018-07-15T01:32:51.842Z,87.30
2018-07-15T01:35:21.412Z,86.70
2018-07-15T01:37:50.593Z,86.50
2018-07-15T01:40:19.407Z,86.70
2018-07-15T01:42:48.905Z,87.20
2018-07-15T01:45:17.720Z,86.50
2018-07-15T01:47:46.909Z,87.20
2018-07-15T01:50:16.077Z,86.70
2018-07-15T01:52:45.138Z,87.30
2018-07-15T01:55:14.657Z,87.00
2018-07-15T01:57:44.136Z,87.60
2018-07-15T02:00:12.901Z,87.10
2018-07-15T02:02:42.054Z,87.00
2018-07-15T02:05:11.041Z,88.30
2018-07-15T02:07:39.842Z,87.80
2018-07-15T02:10:09.243Z,88.10
2018-07-15T02:12:38.570Z,87.10
2018-07-15T02:15:07.725Z,87.10
2018-07-15T02:17:36.866Z,87.10
2018-07-15T02:20:05.674Z,87.60
2018-07-15T02:22:34.791Z,87.10
2018-07-15T02:25:03.902Z,87.30
2018-07-15T02:27:32.726Z,87.60
2018-07-15T02:30:01.758Z,87.90
2018-07-15T02:32:30.601Z,87.10
2018-07-15T02:34:59.887Z,86.60
2018-07-15T02:37:29.029Z,86.70
2018-07-15T02:39:58.689Z,87.40
2018-07-15T02:42:27.673Z,87.70
2018-07-15T02:44:56.882Z,88.60
2018-07-15T02:47:26.130Z,88.60
2018-07-15T02:49:55.380Z,88.60
2018-07-15T02:52:24.739Z,88.90
2018-07-15T02:54:53.869Z,89.20
2018-07-15T02:57:22.631Z,88.70
2018-07-15T02:59:51.439Z,89.00
2018-07-15T03:02:20.933Z,88.80
2018-07-15T03:04:50.042Z,89.50
2018-07-15T03:07:19.253Z,88.10
2018-07-15T03:09:48.433Z,88.90
2018-07-15T03:12:17.526Z,89.30
2018-07-15T03:14:46.616Z,89.50
2018-07-15T03:17:15.413Z,89.30
2018-07-15T03:19:44.704Z,89.50
2018-07-15T03:22:13.916Z,89.50
2018-07-15T03:24:43.046Z,89.50
2018-07-15T03:27:12.358Z,90.10
2018-07-15T03:29:41.180Z,89.90
2018-07-15T03:32:10.371Z,90.30
2018-07-15T03:34:39.208Z,89.60
2018-07-15T03:37:08.716Z,88.80
2018-07-15T03:39:38.011Z,89.30
2018-07-15T03:42:06.878Z,88.70
2018-07-15T03:44:36.379Z,87.90
2018-07-15T03:47:06.081Z,88.20
2018-07-15T03:49:35.381Z,86.20
2018-07-15T03:52:05.036Z,85.40
2018-07-15T03:54:33.810Z,84.10
2018-07-15T03:57:02.623Z,83.20
2018-07-15T03:59:31.733Z,83.00
2018-07-15T04:02:01.222Z,83.00
2018-07-15T04:04:29.982Z,82.90
2018-07-15T04:06:58.768Z,81.40
2018-07-15T04:09:27.844Z,79.10
2018-07-15T04:11:57.310Z,77.70
2018-07-15T04:14:26.396Z,76.60
2018-07-15T04:16:55.501Z,75.30
2018-07-15T04:19:24.248Z,76.20
2018-07-15T04:21:53.714Z,77.10
2018-07-15T04:24:22.850Z,76.40
2018-07-15T04:26:52.085Z,74.30
2018-07-15T04:29:20.959Z,72.00
2018-07-15T04:31:50.105Z,70.20
2018-07-15T04:34:19.245Z,68.50
2018-07-15T04:36:48.449Z,67.10
2018-07-15T04:39:17.312Z,64.10
2018-07-15T04:41:46.837Z,61.90
2018-07-15T04:44:16.936Z,59.70
2018-07-15T04:46:46.468Z,57.90
2018-07-15T04:49:15.945Z,57.60
2018-07-15T04:51:45.409Z,56.40
2018-07-15T04:54:15.447Z,56.50
2018-07-15T04:56:45.209Z,56.40
2018-07-15T04:59:14.939Z,55.80
2018-07-15T05:01:44.481Z,53.40
2018-07-15T05:04:14.886Z,52.20
2018-07-15T05:06:44.963Z,52.80
2018-07-15T05:09:14.371Z,54.10
2018-07-15T05:11:43.663Z,54.50
2018-07-15T05:14:13.372Z,55.10
2018-07-15T05:16:42.736Z,53.60
2018-07-15T05:19:12.100Z,54.00
2018-07-15T05:21:41.820Z,54.20
2018-07-15T05:24:11.804Z,55.00
2018-07-15T05:26:41.201Z,54.50
2018-07-15T05:29:10.578Z,55.90
2018-07-15T05:31:40.668Z,55.00
2018-07-15T05:34:10.009Z,57.60
2018-07-15T05:36:39.570Z,59.60
2018-07-15T05:39:09.125Z,62.00
2018-07-15T05:41:38.261Z,61.70
2018-07-15T05:44:07.031Z,62.10
2018-07-15T05:46:36.073Z,62.80
2018-07-15T05:49:05.541Z,63.50
2018-07-15T05:51:34.329Z,65.50
2018-07-15T05:54:03.139Z,65.00
2018-07-15T05:56:32.005Z,65.00
2018-07-15T05:59:01.454Z,65.30
2018-07-15T06:01:30.928Z,64.40
2018-07-15T06:04:00.125Z,64.40
2018-07-15T06:06:29.796Z,64.50
2018-07-15T06:08:59.358Z,64.60
2018-07-15T06:11:28.475Z,64.20
2018-07-15T06:13:57.528Z,63.20
2018-07-15T06:16:26.932Z,63.50
2018-07-15T06:18:55.768Z,64.00
2018-07-15T06:21:24.581Z,62.40
2018-07-15T06:23:53.683Z,61.50
2018-07-15T06:26:22.474Z,61.80
2018-07-15T06:28:51.822Z,62.00
2018-07-15T06:31:20.655Z,61.60
2018-07-15T06:33:49.796Z,62.40
2018-07-15T06:36:18.613Z,61.60
2018-07-15T06:38:47.903Z,61.90
2018-07-15T06:41:16.716Z,61.30
2018-07-15T06:43:45.540Z,62.10
2018-07-15T06:46:15.168Z,62.10
2018-07-15T06:51:13.249Z,61.00
2018-07-15T06:53:42.195Z,62.00
2018-07-15T06:56:11.467Z,60.00
2018-07-15T06:58:40.805Z,60.60
2018-07-15T07:01:10.054Z,61.40
2018-07-15T07:03:39.418Z,59.50
2018-07-15T07:06:08.644Z,59.00
2018-07-15T07:08:37.840Z,58.50
2018-07-15T07:11:06.994Z,59.00
2018-07-15T07:13:36.237Z,58.70
2018-07-15T07:16:05.385Z,59.10
2018-07-15T07:18:34.170Z,59.00
2018-07-15T07:21:03.655Z,57.90
2018-07-15T07:23:32.779Z,57.10
2018-07-15T07:26:01.818Z,57.50
2018-07-15T07:28:31.047Z,57.90
2018-07-15T07:31:00.150Z,57.70
2018-07-15T07:33:29.133Z,57.70
2018-07-15T07:35:58.300Z,57.00
2018-07-15T07:38:27.045Z,57.30
2018-07-15T07:40:56.237Z,57.40
2018-07-15T07:43:25.478Z,57.50
2018-07-15T07:45:54.685Z,58.40
2018-07-15T07:48:23.530Z,57.00
2018-07-15T07:50:52.395Z,56.90
2018-07-15T07:53:21.295Z,56.20
2018-07-15T07:55:50.504Z,56.40
2018-07-15T07:58:19.500Z,55.50
2018-07-15T08:00:48.601Z,55.70
2018-07-15T08:03:18.085Z,56.10
2018-07-15T08:05:47.552Z,55.70
2018-07-15T08:08:16.508Z,55.60
2018-07-15T08:10:45.532Z,54.00
2018-07-15T08:13:14.338Z,54.10
2018-07-15T08:15:43.175Z,54.10
2018-07-15T08:18:11.935Z,54.30
2018-07-15T08:20:40.811Z,53.00
2018-07-15T08:23:09.977Z,49.90
2018-07-15T08:25:39.779Z,47.90
2018-07-15T08:28:08.622Z,48.80
2018-07-15T08:30:48.970Z,51.20
2018-07-15T08:33:18.293Z,53.20
2018-07-15T08:38:16.156Z,54.70
2018-07-15T08:40:45.555Z,53.90
2018-07-15T08:43:14.483Z,53.80
2018-07-15T08:45:43.388Z,53.90
2018-07-15T08:48:12.169Z,53.90
2018-07-15T08:50:41.442Z,53.40
2018-07-15T08:53:10.354Z,53.20
2018-07-15T08:55:39.550Z,52.30
2018-07-15T08:58:08.752Z,53.20
2018-07-15T09:00:37.491Z,53.80
2018-07-15T09:03:06.342Z,55.50
2018-07-15T09:05:35.528Z,56.40
2018-07-15T09:08:04.383Z,54.00
2018-07-15T09:10:33.569Z,53.60
2018-07-15T09:13:02.975Z,53.40
2018-07-15T09:15:31.897Z,53.70
2018-07-15T09:18:01.733Z,53.80
2018-07-15T09:20:30.849Z,52.90
2018-07-15T09:23:00.686Z,54.30
2018-07-15T09:25:29.975Z,54.90
2018-07-15T09:27:59.273Z,54.70
2018-07-15T09:32:57.028Z,54.30
2018-07-15T09:35:26.212Z,53.70
2018-07-15T09:37:55.195Z,54.30
2018-07-15T09:40:25.196Z,54.20
2018-07-15T09:42:54.683Z,53.90
2018-07-15T09:45:23.794Z,54.60
2018-07-15T09:47:52.951Z,53.50
2018-07-15T09:50:22.420Z,54.80
2018-07-15T09:52:51.901Z,55.50
2018-07-15T09:57:49.536Z,55.10
2018-07-15T10:00:23.913Z,56.50
2018-07-15T10:02:52.897Z,53.80
2018-07-15T10:05:21.661Z,53.30
2018-07-15T10:07:50.496Z,52.90
2018-07-15T10:10:19.592Z,52.90
2018-07-15T10:12:48.619Z,52.80
2018-07-15T10:15:17.805Z,54.20
2018-07-15T10:17:46.800Z,55.40
2018-07-15T10:20:15.950Z,54.70
2018-07-15T10:22:44.822Z,55.80
2018-07-15T10:25:14.146Z,55.50
2018-07-15T10:27:44.324Z,55.70
2018-07-15T10:30:13.192Z,55.70
2018-07-15T10:32:42.252Z,56.10
2018-07-15T10:35:11.732Z,56.20
2018-07-15T10:37:40.786Z,55.00
2018-07-15T10:40:10.255Z,54.50
2018-07-15T10:42:39.538Z,53.60
2018-07-15T10:45:10.442Z,53.10
2018-07-15T10:47:39.672Z,52.30
2018-07-15T10:50:09.094Z,52.00
2018-07-15T10:52:38.229Z,52.10
2018-07-15T10:55:07.685Z,52.10
2018-07-15T10:57:37.009Z,52.70
2018-07-15T11:00:06.593Z,52.30
2018-07-15T11:02:35.758Z,53.60
2018-07-15T11:05:05.481Z,53.00
2018-07-15T11:07:34.633Z,53.20
2018-07-15T11:10:03.747Z,54.60
2018-07-15T11:12:32.583Z,54.00
2018-07-15T11:15:01.374Z,54.20
2018-07-15T11:17:30.567Z,54.30
2018-07-15T11:19:59.392Z,54.00
2018-07-15T11:22:28.827Z,52.90
2018-07-15T11:24:58.403Z,53.70
2018-07-15T11:27:27.729Z,53.40
2018-07-15T11:29:56.699Z,53.10
2018-07-15T11:32:25.551Z,54.00
2018-07-15T11:34:55.304Z,54.70
2018-07-15T11:37:24.234Z,54.40
2018-07-15T11:39:53.238Z,54.80
2018-07-15T11:42:22.619Z,55.20
2018-07-15T11:44:52.392Z,54.70
2018-07-15T11:47:21.492Z,56.00
2018-07-15T11:49:50.796Z,56.60
2018-07-15T11:52:19.615Z,56.50
2018-07-15T11:54:48.430Z,55.50
2018-07-15T11:57:17.629Z,55.70
2018-07-15T11:59:46.757Z,54.80
2018-07-15T12:02:15.542Z,54.40
2018-07-15T12:04:44.352Z,54.80
2018-07-15T12:07:13.520Z,54.60
2018-07-15T12:09:42.627Z,54.10
2018-07-15T12:12:11.974Z,55.00
2018-07-15T12:14:40.947Z,55.50
2018-07-15T12:17:10.085Z,56.50
2018-07-15T12:19:39.165Z,57.90
2018-07-15T12:22:08.216Z,58.20
2018-07-15T12:24:37.239Z,58.30
2018-07-15T12:27:06.259Z,58.10
2018-07-15T12:29:35.307Z,57.30
2018-07-15T12:32:04.782Z,57.90
2018-07-15T12:34:34.008Z,57.20
2018-07-15T12:37:03.860Z,56.50
2018-07-15T12:39:32.696Z,56.70
2018-07-15T12:42:02.386Z,57.30
2018-07-15T12:44:31.207Z,56.90
2018-07-15T12:47:00.628Z,56.80
2018-07-15T12:49:29.767Z,57.40
2018-07-15T12:51:59.159Z,55.30
2018-07-15T12:54:28.478Z,56.10
2018-07-15T12:56:57.313Z,57.20
2018-07-15T12:59:26.515Z,55.40
2018-07-15T13:01:56.020Z,54.80
2018-07-15T13:04:25.126Z,55.80
2018-07-15T13:06:53.943Z,54.70
2018-07-15T13:09:23.119Z,55.70
2018-07-15T13:11:51.978Z,57.40
2018-07-15T13:14:20.965Z,58.00
2018-07-15T13:19:18.966Z,57.00
2018-07-15T13:21:48.153Z,56.60
2018-07-15T13:24:17.322Z,57.00
2018-07-15T13:26:46.238Z,55.80
2018-07-15T13:29:15.381Z,56.50
2018-07-15T13:31:44.268Z,56.90
2018-07-15T13:34:13.079Z,57.10
2018-07-15T13:36:42.420Z,57.90
2018-07-15T13:39:11.282Z,55.80
2018-07-15T13:41:41.633Z,56.60
2018-07-15T13:44:10.720Z,56.00
2018-07-15T13:46:39.698Z,56.10
2018-07-15T13:49:08.536Z,56.70
2018-07-15T13:51:37.704Z,56.40
2018-07-15T13:54:06.845Z,55.80
2018-07-15T13:56:36.287Z,55.50
2018-07-15T13:59:05.087Z,56.20
2018-07-15T14:01:34.128Z,55.60
2018-07-15T14:04:02.917Z,55.50
2018-07-15T14:06:32.550Z,56.10
2018-07-15T14:09:01.367Z,56.40
